sensor_id;sensor_type;location;lat;lon;timestamp;P1;durP1;ratioP1;P2;durP2;ratioP2
50002;SDS011;35889;51.442;6.408;2023-02-15T00:01:29;0.90;;;0.90;;
50002;SDS011;35889;51.442;6.408;2023-02-15T00:03:55;1.00;;;1.00;;
50002;SDS011;35889;51.442;6.408;2023-02-15T00:06:20;0.80;;;0.80;;
50002;SDS011;35889;51.442;6.408;2023-02-15T00:08:46;0.90;;;0.90;;
50002;SDS011;35889;51.442;6.408;2023-02-15T00:11:13;0.95;;;0.95;;
50002;SDS011;35889;51.442;6.408;2023-02-15T00:13:40;0.90;;;0.90;;
50002;SDS011;35889;51.442;6.408;2023-02-15T00:16:09;1.00;;;1.00;;
50002;SDS011;35889;51.442;6.408;2023-02-15T00:18:37;1.00;;;1.00;;
50002;SDS011;35889;51.442;6.408;2023-02-15T00:21:04;0.80;;;0.80;;
50002;SDS011;35889;51.442;6.408;2023-02-15T00:23:31;0.80;;;0.80;;
50002;SDS011;35889;51.442;6.408;2023-02-15T00:26:14;0.90;;;0.90;;
50002;SDS011;35889;51.442;6.408;2023-02-15T00:28:42;0.80;;;0.80;;
50002;SDS011;35889;51.442;6.408;2023-02-15T00:31:09;0.80;;;0.80;;
50002;SDS011;35889;51.442;6.408;2023-02-15T00:33:36;0.90;;;0.90;;
50002;SDS011;35889;51.442;6.408;2023-02-15T00:36:02;0.88;;;0.88;;
50002;SDS011;35889;51.442;6.408;2023-02-15T00:38:29;0.90;;;0.90;;
50002;SDS011;35889;51.442;6.408;2023-02-15T00:40:55;0.90;;;0.90;;
50002;SDS011;35889;51.442;6.408;2023-02-15T00:43:22;0.98;;;0.98;;
50002;SDS011;35889;51.442;6.408;2023-02-15T00:45:48;0.90;;;0.90;;
50002;SDS011;35889;51.442;6.408;2023-02-15T00:48:14;1.00;;;1.00;;
50002;SDS011;35889;51.442;6.408;2023-02-15T00:50:40;0.90;;;0.90;;
50002;SDS011;35889;51.442;6.408;2023-02-15T00:53:05;0.88;;;0.88;;
50002;SDS011;35889;51.442;6.408;2023-02-15T00:55:31;1.00;;;1.00;;
50002;SDS011;35889;51.442;6.408;2023-02-15T00:57:56;0.90;;;0.90;;
50002;SDS011;35889;51.442;6.408;2023-02-15T01:00:22;0.90;;;0.90;;
50002;SDS011;35889;51.442;6.408;2023-02-15T01:02:47;0.90;;;0.90;;
50002;SDS011;35889;51.442;6.408;2023-02-15T01:05:13;0.80;;;0.80;;
50002;SDS011;35889;51.442;6.408;2023-02-15T01:07:39;1.00;;;1.00;;
50002;SDS011;35889;51.442;6.408;2023-02-15T01:10:05;0.90;;;0.90;;
50002;SDS011;35889;51.442;6.408;2023-02-15T01:12:32;0.80;;;0.80;;
50002;SDS011;35889;51.442;6.408;2023-02-15T01:14:58;1.00;;;1.00;;
50002;SDS011;35889;51.442;6.408;2023-02-15T01:17:24;0.88;;;0.88;;
50002;SDS011;35889;51.442;6.408;2023-02-15T01:19:49;0.90;;;0.90;;
50002;SDS011;35889;51.442;6.408;2023-02-15T01:22:18;0.80;;;0.80;;
50002;SDS011;35889;51.442;6.408;2023-02-15T01:24:44;1.00;;;1.00;;
50002;SDS011;35889;51.442;6.408;2023-02-15T01:27:09;0.80;;;0.80;;
50002;SDS011;35889;51.442;6.408;2023-02-15T01:29:35;0.95;;;0.95;;
50002;SDS011;35889;51.442;6.408;2023-02-15T01:32:00;0.90;;;0.90;;
50002;SDS011;35889;51.442;6.408;2023-02-15T01:34:26;1.00;;;1.00;;
50002;SDS011;35889;51.442;6.408;2023-02-15T01:36:51;1.00;;;1.00;;
50002;SDS011;35889;51.442;6.408;2023-02-15T01:39:17;0.90;;;0.90;;
50002;SDS011;35889;51.442;6.408;2023-02-15T01:41:42;1.00;;;1.00;;
50002;SDS011;35889;51.442;6.408;2023-02-15T01:47:11;1.00;;;1.00;;
50002;SDS011;35889;51.442;6.408;2023-02-15T01:49:42;1.00;;;1.00;;
50002;SDS011;35889;51.442;6.408;2023-02-15T01:52:10;0.90;;;0.90;;
50002;SDS011;35889;51.442;6.408;2023-02-15T01:54:38;1.00;;;1.00;;
50002;SDS011;35889;51.442;6.408;2023-02-15T01:57:08;1.00;;;1.00;;
50002;SDS011;35889;51.442;6.408;2023-02-15T01:59:34;0.90;;;0.90;;
50002;SDS011;35889;51.442;6.408;2023-02-15T02:02:02;0.90;;;0.90;;
50002;SDS011;35889;51.442;6.408;2023-02-15T02:04:47;0.90;;;0.90;;
50002;SDS011;35889;51.442;6.408;2023-02-15T02:07:18;1.00;;;1.00;;
50002;SDS011;35889;51.442;6.408;2023-02-15T02:09:45;0.90;;;0.90;;
50002;SDS011;35889;51.442;6.408;2023-02-15T02:12:10;0.90;;;0.90;;
50002;SDS011;35889;51.442;6.408;2023-02-15T02:14:38;1.00;;;1.00;;
50002;SDS011;35889;51.442;6.408;2023-02-15T02:17:17;1.10;;;1.10;;
50002;SDS011;35889;51.442;6.408;2023-02-15T02:29:07;0.90;;;0.90;;
50002;SDS011;35889;51.442;6.408;2023-02-15T02:34:01;1.00;;;1.00;;
50002;SDS011;35889;51.442;6.408;2023-02-15T02:42:33;0.90;;;0.90;;
50002;SDS011;35889;51.442;6.408;2023-02-15T02:45:03;0.90;;;0.90;;
50002;SDS011;35889;51.442;6.408;2023-02-15T02:47:40;1.00;;;1.00;;
50002;SDS011;35889;51.442;6.408;2023-02-15T02:50:17;1.00;;;1.00;;
50002;SDS011;35889;51.442;6.408;2023-02-15T02:52:48;1.00;;;1.00;;
50002;SDS011;35889;51.442;6.408;2023-02-15T02:55:16;0.90;;;0.90;;
50002;SDS011;35889;51.442;6.408;2023-02-15T02:58:09;0.90;;;0.90;;
50002;SDS011;35889;51.442;6.408;2023-02-15T03:00:45;0.93;;;0.93;;
50002;SDS011;35889;51.442;6.408;2023-02-15T03:03:27;0.90;;;0.90;;
50002;SDS011;35889;51.442;6.408;2023-02-15T03:05:57;1.00;;;1.00;;
50002;SDS011;35889;51.442;6.408;2023-02-15T03:08:25;1.00;;;1.00;;
50002;SDS011;35889;51.442;6.408;2023-02-15T03:10:56;1.00;;;1.00;;
50002;SDS011;35889;51.442;6.408;2023-02-15T03:13:24;0.90;;;0.90;;
50002;SDS011;35889;51.442;6.408;2023-02-15T03:15:50;1.08;;;1.08;;
50002;SDS011;35889;51.442;6.408;2023-02-15T03:18:39;0.98;;;0.98;;
50002;SDS011;35889;51.442;6.408;2023-02-15T03:21:20;0.98;;;0.98;;
50002;SDS011;35889;51.442;6.408;2023-02-15T03:23:54;1.00;;;1.00;;
50002;SDS011;35889;51.442;6.408;2023-02-15T03:26:25;0.90;;;0.90;;
50002;SDS011;35889;51.442;6.408;2023-02-15T03:28:52;0.90;;;0.90;;
50002;SDS011;35889;51.442;6.408;2023-02-15T03:31:21;1.00;;;1.00;;
50002;SDS011;35889;51.442;6.408;2023-02-15T03:33:59;0.90;;;0.90;;
50002;SDS011;35889;51.442;6.408;2023-02-15T03:36:46;0.90;;;0.90;;
50002;SDS011;35889;51.442;6.408;2023-02-15T03:39:28;0.90;;;0.90;;
50002;SDS011;35889;51.442;6.408;2023-02-15T03:42:03;0.90;;;0.90;;
50002;SDS011;35889;51.442;6.408;2023-02-15T03:44:41;0.98;;;0.98;;
50002;SDS011;35889;51.442;6.408;2023-02-15T03:47:17;1.00;;;1.00;;
50002;SDS011;35889;51.442;6.408;2023-02-15T03:49:50;0.95;;;0.95;;
50002;SDS011;35889;51.442;6.408;2023-02-15T03:52:25;0.93;;;0.93;;
50002;SDS011;35889;51.442;6.408;2023-02-15T03:54:51;1.00;;;1.00;;
50002;SDS011;35889;51.442;6.408;2023-02-15T04:03:00;1.00;;;1.00;;
50002;SDS011;35889;51.442;6.408;2023-02-15T04:05:36;1.00;;;1.00;;
50002;SDS011;35889;51.442;6.408;2023-02-15T04:08:02;1.00;;;1.00;;
50002;SDS011;35889;51.442;6.408;2023-02-15T04:10:27;1.00;;;1.00;;
50002;SDS011;35889;51.442;6.408;2023-02-15T04:13:11;0.90;;;0.90;;
50002;SDS011;35889;51.442;6.408;2023-02-15T04:15:37;1.00;;;1.00;;
50002;SDS011;35889;51.442;6.408;2023-02-15T04:18:21;1.00;;;1.00;;
50002;SDS011;35889;51.442;6.408;2023-02-15T04:20:46;1.00;;;1.00;;
50002;SDS011;35889;51.442;6.408;2023-02-15T04:23:31;0.90;;;0.90;;
50002;SDS011;35889;51.442;6.408;2023-02-15T04:26:15;1.00;;;1.00;;
50002;SDS011;35889;51.442;6.408;2023-02-15T04:28:41;1.00;;;1.00;;
50002;SDS011;35889;51.442;6.408;2023-02-15T04:31:06;1.00;;;1.00;;
50002;SDS011;35889;51.442;6.408;2023-02-15T04:33:32;1.00;;;1.00;;
50002;SDS011;35889;51.442;6.408;2023-02-15T04:35:57;0.90;;;0.90;;
50002;SDS011;35889;51.442;6.408;2023-02-15T04:38:23;0.90;;;0.90;;
50002;SDS011;35889;51.442;6.408;2023-02-15T04:40:51;1.00;;;1.00;;
50002;SDS011;35889;51.442;6.408;2023-02-15T04:43:20;1.00;;;1.00;;
50002;SDS011;35889;51.442;6.408;2023-02-15T04:45:49;0.93;;;0.93;;
50002;SDS011;35889;51.442;6.408;2023-02-15T04:48:17;0.90;;;0.90;;
50002;SDS011;35889;51.442;6.408;2023-02-15T04:50:43;1.00;;;1.00;;
50002;SDS011;35889;51.442;6.408;2023-02-15T04:53:10;0.90;;;0.90;;
50002;SDS011;35889;51.442;6.408;2023-02-15T04:55:36;1.00;;;1.00;;
50002;SDS011;35889;51.442;6.408;2023-02-15T04:58:02;1.00;;;1.00;;
50002;SDS011;35889;51.442;6.408;2023-02-15T05:00:27;1.00;;;1.00;;
50002;SDS011;35889;51.442;6.408;2023-02-15T05:02:53;1.00;;;1.00;;
50002;SDS011;35889;51.442;6.408;2023-02-15T05:05:19;0.90;;;0.90;;
50002;SDS011;35889;51.442;6.408;2023-02-15T05:07:44;1.05;;;1.05;;
50002;SDS011;35889;51.442;6.408;2023-02-15T05:10:10;1.00;;;1.00;;
50002;SDS011;35889;51.442;6.408;2023-02-15T05:12:35;0.93;;;0.93;;
50002;SDS011;35889;51.442;6.408;2023-02-15T05:15:01;1.00;;;1.00;;
50002;SDS011;35889;51.442;6.408;2023-02-15T05:17:26;1.10;;;1.10;;
50002;SDS011;35889;51.442;6.408;2023-02-15T05:19:52;1.00;;;1.00;;
50002;SDS011;35889;51.442;6.408;2023-02-15T05:22:17;0.90;;;0.90;;
50002;SDS011;35889;51.442;6.408;2023-02-15T05:24:42;1.05;;;1.05;;
50002;SDS011;35889;51.442;6.408;2023-02-15T05:27:27;1.00;;;1.00;;
50002;SDS011;35889;51.442;6.408;2023-02-15T05:30:11;0.90;;;0.90;;
50002;SDS011;35889;51.442;6.408;2023-02-15T05:32:37;0.90;;;0.90;;
50002;SDS011;35889;51.442;6.408;2023-02-15T05:35:04;0.98;;;0.98;;
50002;SDS011;35889;51.442;6.408;2023-02-15T05:37:30;1.05;;;1.05;;
50002;SDS011;35889;51.442;6.408;2023-02-15T05:39:56;1.00;;;1.00;;
50002;SDS011;35889;51.442;6.408;2023-02-15T05:42:21;1.00;;;1.00;;
50002;SDS011;35889;51.442;6.408;2023-02-15T05:44:47;1.00;;;1.00;;
50002;SDS011;35889;51.442;6.408;2023-02-15T05:47:12;1.10;;;1.10;;
50002;SDS011;35889;51.442;6.408;2023-02-15T05:49:38;1.00;;;1.00;;
50002;SDS011;35889;51.442;6.408;2023-02-15T05:52:03;1.00;;;1.00;;
50002;SDS011;35889;51.442;6.408;2023-02-15T05:54:29;1.10;;;1.10;;
50002;SDS011;35889;51.442;6.408;2023-02-15T05:56:54;1.00;;;1.00;;
50002;SDS011;35889;51.442;6.408;2023-02-15T05:59:20;1.00;;;1.00;;
50002;SDS011;35889;51.442;6.408;2023-02-15T06:01:45;1.00;;;1.00;;
50002;SDS011;35889;51.442;6.408;2023-02-15T06:04:11;1.00;;;1.00;;
50002;SDS011;35889;51.442;6.408;2023-02-15T06:06:37;0.90;;;0.90;;
50002;SDS011;35889;51.442;6.408;2023-02-15T06:09:03;0.93;;;0.93;;
50002;SDS011;35889;51.442;6.408;2023-02-15T06:11:28;1.00;;;1.00;;
50002;SDS011;35889;51.442;6.408;2023-02-15T06:13:54;1.10;;;1.10;;
50002;SDS011;35889;51.442;6.408;2023-02-15T06:16:19;1.00;;;1.00;;
50002;SDS011;35889;51.442;6.408;2023-02-15T06:18:45;1.00;;;1.00;;
50002;SDS011;35889;51.442;6.408;2023-02-15T06:21:10;0.80;;;0.80;;
50002;SDS011;35889;51.442;6.408;2023-02-15T06:23:35;1.10;;;1.10;;
50002;SDS011;35889;51.442;6.408;2023-02-15T06:26:01;0.82;;;0.82;;
50002;SDS011;35889;51.442;6.408;2023-02-15T06:28:26;1.00;;;1.00;;
50002;SDS011;35889;51.442;6.408;2023-02-15T06:30:52;1.10;;;1.10;;
50002;SDS011;35889;51.442;6.408;2023-02-15T06:33:17;0.95;;;0.95;;
50002;SDS011;35889;51.442;6.408;2023-02-15T06:35:43;1.00;;;1.00;;
50002;SDS011;35889;51.442;6.408;2023-02-15T06:38:10;0.90;;;0.90;;
50002;SDS011;35889;51.442;6.408;2023-02-15T06:40:36;1.10;;;1.10;;
50002;SDS011;35889;51.442;6.408;2023-02-15T06:43:01;1.00;;;1.00;;
50002;SDS011;35889;51.442;6.408;2023-02-15T06:45:27;1.00;;;1.00;;
50002;SDS011;35889;51.442;6.408;2023-02-15T06:47:52;1.00;;;1.00;;
50002;SDS011;35889;51.442;6.408;2023-02-15T06:50:19;1.10;;;1.10;;
50002;SDS011;35889;51.442;6.408;2023-02-15T06:52:44;1.00;;;1.00;;
50002;SDS011;35889;51.442;6.408;2023-02-15T06:55:10;0.90;;;0.90;;
50002;SDS011;35889;51.442;6.408;2023-02-15T06:57:36;1.00;;;1.00;;
50002;SDS011;35889;51.442;6.408;2023-02-15T07:00:01;0.90;;;0.90;;
50002;SDS011;35889;51.442;6.408;2023-02-15T07:02:29;1.00;;;1.00;;
50002;SDS011;35889;51.442;6.408;2023-02-15T07:04:56;1.00;;;1.00;;
50002;SDS011;35889;51.442;6.408;2023-02-15T07:07:22;1.00;;;1.00;;
50002;SDS011;35889;51.442;6.408;2023-02-15T07:09:48;1.00;;;1.00;;
50002;SDS011;35889;51.442;6.408;2023-02-15T07:12:13;1.00;;;1.00;;
50002;SDS011;35889;51.442;6.408;2023-02-15T07:14:58;1.00;;;1.00;;
50002;SDS011;35889;51.442;6.408;2023-02-15T07:17:23;0.90;;;0.90;;
50002;SDS011;35889;51.442;6.408;2023-02-15T07:19:49;1.00;;;1.00;;
50002;SDS011;35889;51.442;6.408;2023-02-15T07:22:15;1.00;;;1.00;;
50002;SDS011;35889;51.442;6.408;2023-02-15T07:24:40;1.00;;;1.00;;
50002;SDS011;35889;51.442;6.408;2023-02-15T07:27:07;0.90;;;0.90;;
50002;SDS011;35889;51.442;6.408;2023-02-15T07:29:32;1.00;;;1.00;;
50002;SDS011;35889;51.442;6.408;2023-02-15T07:31:58;0.98;;;0.98;;
50002;SDS011;35889;51.442;6.408;2023-02-15T07:34:23;1.00;;;1.00;;
50002;SDS011;35889;51.442;6.408;2023-02-15T07:36:50;1.00;;;1.00;;
50002;SDS011;35889;51.442;6.408;2023-02-15T07:39:19;1.00;;;1.00;;
50002;SDS011;35889;51.442;6.408;2023-02-15T07:41:44;1.00;;;1.00;;
50002;SDS011;35889;51.442;6.408;2023-02-15T07:44:11;1.00;;;1.00;;
50002;SDS011;35889;51.442;6.408;2023-02-15T07:46:38;1.00;;;1.00;;
50002;SDS011;35889;51.442;6.408;2023-02-15T07:49:06;0.90;;;0.90;;
50002;SDS011;35889;51.442;6.408;2023-02-15T07:51:32;1.08;;;1.08;;
50002;SDS011;35889;51.442;6.408;2023-02-15T07:53:57;1.00;;;1.00;;
50002;SDS011;35889;51.442;6.408;2023-02-15T07:56:23;0.90;;;0.90;;
50002;SDS011;35889;51.442;6.408;2023-02-15T07:58:48;1.00;;;1.00;;
50002;SDS011;35889;51.442;6.408;2023-02-15T08:01:26;0.93;;;0.93;;
50002;SDS011;35889;51.442;6.408;2023-02-15T08:03:54;0.90;;;0.90;;
50002;SDS011;35889;51.442;6.408;2023-02-15T08:06:21;0.90;;;0.90;;
50002;SDS011;35889;51.442;6.408;2023-02-15T08:08:50;1.00;;;1.00;;
50002;SDS011;35889;51.442;6.408;2023-02-15T08:11:17;0.95;;;0.95;;
50002;SDS011;35889;51.442;6.408;2023-02-15T08:16:43;0.98;;;0.98;;
50002;SDS011;35889;51.442;6.408;2023-02-15T08:19:21;0.80;;;0.80;;
50002;SDS011;35889;51.442;6.408;2023-02-15T08:22:00;1.00;;;1.00;;
50002;SDS011;35889;51.442;6.408;2023-02-15T08:24:28;1.00;;;1.00;;
50002;SDS011;35889;51.442;6.408;2023-02-15T08:26:54;1.00;;;1.00;;
50002;SDS011;35889;51.442;6.408;2023-02-15T08:29:21;0.80;;;0.80;;
50002;SDS011;35889;51.442;6.408;2023-02-15T08:31:48;1.00;;;1.00;;
50002;SDS011;35889;51.442;6.408;2023-02-15T08:34:16;1.00;;;1.00;;
50002;SDS011;35889;51.442;6.408;2023-02-15T08:36:42;0.85;;;0.85;;
50002;SDS011;35889;51.442;6.408;2023-02-15T08:39:10;0.90;;;0.90;;
50002;SDS011;35889;51.442;6.408;2023-02-15T08:41:36;0.90;;;0.90;;
50002;SDS011;35889;51.442;6.408;2023-02-15T08:44:04;0.90;;;0.90;;
50002;SDS011;35889;51.442;6.408;2023-02-15T08:46:31;0.80;;;0.80;;
50002;SDS011;35889;51.442;6.408;2023-02-15T08:48:58;0.90;;;0.90;;
50002;SDS011;35889;51.442;6.408;2023-02-15T08:51:25;0.82;;;0.82;;
50002;SDS011;35889;51.442;6.408;2023-02-15T08:53:53;0.90;;;0.90;;
50002;SDS011;35889;51.442;6.408;2023-02-15T08:56:21;0.80;;;0.80;;
50002;SDS011;35889;51.442;6.408;2023-02-15T08:58:49;1.00;;;1.00;;
50002;SDS011;35889;51.442;6.408;2023-02-15T09:01:16;0.90;;;0.90;;
50002;SDS011;35889;51.442;6.408;2023-02-15T09:03:44;0.98;;;0.98;;
50002;SDS011;35889;51.442;6.408;2023-02-15T09:06:10;0.90;;;0.90;;
50002;SDS011;35889;51.442;6.408;2023-02-15T09:08:36;0.95;;;0.95;;
50002;SDS011;35889;51.442;6.408;2023-02-15T09:11:09;0.80;;;0.80;;
50002;SDS011;35889;51.442;6.408;2023-02-15T09:13:38;0.90;;;0.90;;
50002;SDS011;35889;51.442;6.408;2023-02-15T09:16:05;0.90;;;0.90;;
50002;SDS011;35889;51.442;6.408;2023-02-15T09:18:32;0.90;;;0.90;;
50002;SDS011;35889;51.442;6.408;2023-02-15T09:21:19;0.88;;;0.88;;
50002;SDS011;35889;51.442;6.408;2023-02-15T09:23:57;0.80;;;0.80;;
50002;SDS011;35889;51.442;6.408;2023-02-15T09:26:24;0.90;;;0.90;;
50002;SDS011;35889;51.442;6.408;2023-02-15T09:28:51;0.82;;;0.82;;
50002;SDS011;35889;51.442;6.408;2023-02-15T09:31:19;0.80;;;0.80;;
50002;SDS011;35889;51.442;6.408;2023-02-15T09:33:46;0.90;;;0.90;;
50002;SDS011;35889;51.442;6.408;2023-02-15T09:36:25;0.90;;;0.90;;
50002;SDS011;35889;51.442;6.408;2023-02-15T09:38:59;0.90;;;0.90;;
50002;SDS011;35889;51.442;6.408;2023-02-15T09:55:17;1.00;;;1.00;;
50002;SDS011;35889;51.442;6.408;2023-02-15T09:58:10;0.80;;;0.80;;
50002;SDS011;35889;51.442;6.408;2023-02-15T10:00:53;0.90;;;0.90;;
50002;SDS011;35889;51.442;6.408;2023-02-15T10:08:51;0.90;;;0.90;;
50002;SDS011;35889;51.442;6.408;2023-02-15T10:16:57;0.80;;;0.80;;
50002;SDS011;35889;51.442;6.408;2023-02-15T10:25:02;0.90;;;0.90;;
50002;SDS011;35889;51.442;6.408;2023-02-15T10:27:40;0.80;;;0.80;;
50002;SDS011;35889;51.442;6.408;2023-02-15T10:30:13;0.90;;;0.90;;
50002;SDS011;35889;51.442;6.408;2023-02-15T10:35:33;0.90;;;0.90;;
50002;SDS011;35889;51.442;6.408;2023-02-15T10:41:04;0.80;;;0.80;;
50002;SDS011;35889;51.442;6.408;2023-02-15T10:49:05;0.90;;;0.90;;
50002;SDS011;35889;51.442;6.408;2023-02-15T10:54:57;0.80;;;0.80;;
50002;SDS011;35889;51.442;6.408;2023-02-15T11:08:53;0.80;;;0.80;;
50002;SDS011;35889;51.442;6.408;2023-02-15T11:11:34;0.80;;;0.80;;
50002;SDS011;35889;51.442;6.408;2023-02-15T11:14:13;0.80;;;0.80;;
50002;SDS011;35889;51.442;6.408;2023-02-15T11:16:45;0.80;;;0.80;;
50002;SDS011;35889;51.442;6.408;2023-02-15T11:21:48;0.80;;;0.80;;
50002;SDS011;35889;51.442;6.408;2023-02-15T11:24:16;0.90;;;0.90;;
50002;SDS011;35889;51.442;6.408;2023-02-15T11:32:14;0.80;;;0.80;;
50002;SDS011;35889;51.442;6.408;2023-02-15T11:34:50;0.80;;;0.80;;
50002;SDS011;35889;51.442;6.408;2023-02-15T11:37:43;0.80;;;0.80;;
50002;SDS011;35889;51.442;6.408;2023-02-15T11:42:56;0.80;;;0.80;;
50002;SDS011;35889;51.442;6.408;2023-02-15T11:45:27;0.70;;;0.70;;
50002;SDS011;35889;51.442;6.408;2023-02-15T11:47:54;0.80;;;0.80;;
50002;SDS011;35889;51.442;6.408;2023-02-15T11:50:22;0.80;;;0.80;;
50002;SDS011;35889;51.442;6.408;2023-02-15T11:52:49;0.80;;;0.80;;
50002;SDS011;35889;51.442;6.408;2023-02-15T11:55:18;0.80;;;0.80;;
50002;SDS011;35889;51.442;6.408;2023-02-15T11:58:04;0.80;;;0.80;;
50002;SDS011;35889;51.442;6.408;2023-02-15T12:00:38;0.80;;;0.80;;
50002;SDS011;35889;51.442;6.408;2023-02-15T12:03:22;0.70;;;0.70;;
50002;SDS011;35889;51.442;6.408;2023-02-15T12:05:56;0.80;;;0.80;;
50002;SDS011;35889;51.442;6.408;2023-02-15T12:08:23;0.85;;;0.85;;
50002;SDS011;35889;51.442;6.408;2023-02-15T12:13:21;0.80;;;0.80;;
50002;SDS011;35889;51.442;6.408;2023-02-15T12:15:48;0.80;;;0.80;;
50002;SDS011;35889;51.442;6.408;2023-02-15T12:21:11;0.80;;;0.80;;
50002;SDS011;35889;51.442;6.408;2023-02-15T12:23:48;0.88;;;0.88;;
50002;SDS011;35889;51.442;6.408;2023-02-15T12:26:23;0.80;;;0.80;;
50002;SDS011;35889;51.442;6.408;2023-02-15T12:28:50;0.80;;;0.80;;
50002;SDS011;35889;51.442;6.408;2023-02-15T12:31:21;0.82;;;0.82;;
50002;SDS011;35889;51.442;6.408;2023-02-15T12:33:48;0.80;;;0.80;;
50002;SDS011;35889;51.442;6.408;2023-02-15T12:36:24;0.85;;;0.85;;
50002;SDS011;35889;51.442;6.408;2023-02-15T12:41:36;0.80;;;0.80;;
50002;SDS011;35889;51.442;6.408;2023-02-15T12:44:07;0.82;;;0.82;;
50002;SDS011;35889;51.442;6.408;2023-02-15T12:46:55;0.90;;;0.90;;
50002;SDS011;35889;51.442;6.408;2023-02-15T12:49:22;0.80;;;0.80;;
50002;SDS011;35889;51.442;6.408;2023-02-15T12:51:52;0.80;;;0.80;;
50002;SDS011;35889;51.442;6.408;2023-02-15T12:56:47;0.80;;;0.80;;
50002;SDS011;35889;51.442;6.408;2023-02-15T12:59:13;0.80;;;0.80;;
50002;SDS011;35889;51.442;6.408;2023-02-15T13:01:40;0.80;;;0.80;;
50002;SDS011;35889;51.442;6.408;2023-02-15T13:04:15;0.80;;;0.80;;
50002;SDS011;35889;51.442;6.408;2023-02-15T13:06:47;0.80;;;0.80;;
50002;SDS011;35889;51.442;6.408;2023-02-15T13:09:19;0.80;;;0.80;;
50002;SDS011;35889;51.442;6.408;2023-02-15T13:14:46;0.80;;;0.80;;
50002;SDS011;35889;51.442;6.408;2023-02-15T13:17:13;0.80;;;0.80;;
50002;SDS011;35889;51.442;6.408;2023-02-15T13:19:46;0.80;;;0.80;;
50002;SDS011;35889;51.442;6.408;2023-02-15T13:22:18;0.80;;;0.80;;
50002;SDS011;35889;51.442;6.408;2023-02-15T13:24:47;0.80;;;0.80;;
50002;SDS011;35889;51.442;6.408;2023-02-15T13:27:28;0.80;;;0.80;;
50002;SDS011;35889;51.442;6.408;2023-02-15T13:30:00;0.80;;;0.80;;
50002;SDS011;35889;51.442;6.408;2023-02-15T13:34:59;0.80;;;0.80;;
50002;SDS011;35889;51.442;6.408;2023-02-15T13:37:37;0.80;;;0.80;;
50002;SDS011;35889;51.442;6.408;2023-02-15T13:40:24;0.80;;;0.80;;
50002;SDS011;35889;51.442;6.408;2023-02-15T13:43:00;0.80;;;0.80;;
50002;SDS011;35889;51.442;6.408;2023-02-15T13:56:13;0.80;;;0.80;;
50002;SDS011;35889;51.442;6.408;2023-02-15T14:04:41;0.80;;;0.80;;
50002;SDS011;35889;51.442;6.408;2023-02-15T14:14:29;0.80;;;0.80;;
50002;SDS011;35889;51.442;6.408;2023-02-15T14:21:55;0.80;;;0.80;;
50002;SDS011;35889;51.442;6.408;2023-02-15T14:24:29;0.80;;;0.80;;
50002;SDS011;35889;51.442;6.408;2023-02-15T14:27:24;0.77;;;0.77;;
50002;SDS011;35889;51.442;6.408;2023-02-15T14:29:54;0.70;;;0.70;;
50002;SDS011;35889;51.442;6.408;2023-02-15T14:32:27;0.80;;;0.80;;
50002;SDS011;35889;51.442;6.408;2023-02-15T14:35:02;0.80;;;0.80;;
50002;SDS011;35889;51.442;6.408;2023-02-15T14:54:52;0.70;;;0.70;;
50002;SDS011;35889;51.442;6.408;2023-02-15T14:59:50;0.80;;;0.80;;
50002;SDS011;35889;51.442;6.408;2023-02-15T15:02:15;0.80;;;0.80;;
50002;SDS011;35889;51.442;6.408;2023-02-15T15:04:42;0.88;;;0.88;;
50002;SDS011;35889;51.442;6.408;2023-02-15T15:09:48;0.80;;;0.80;;
50002;SDS011;35889;51.442;6.408;2023-02-15T15:14:49;0.90;;;0.90;;
50002;SDS011;35889;51.442;6.408;2023-02-15T15:20:42;0.80;;;0.80;;
50002;SDS011;35889;51.442;6.408;2023-02-15T15:25:47;0.70;;;0.70;;
50002;SDS011;35889;51.442;6.408;2023-02-15T15:30:57;0.77;;;0.77;;
50002;SDS011;35889;51.442;6.408;2023-02-15T15:36:13;0.80;;;0.80;;
50002;SDS011;35889;51.442;6.408;2023-02-15T15:39:19;0.70;;;0.70;;
50002;SDS011;35889;51.442;6.408;2023-02-15T15:42:04;0.80;;;0.80;;
50002;SDS011;35889;51.442;6.408;2023-02-15T15:51:03;0.80;;;0.80;;
50002;SDS011;35889;51.442;6.408;2023-02-15T15:53:40;0.80;;;0.80;;
50002;SDS011;35889;51.442;6.408;2023-02-15T15:56:12;0.80;;;0.80;;
50002;SDS011;35889;51.442;6.408;2023-02-15T15:58:46;0.73;;;0.73;;
50002;SDS011;35889;51.442;6.408;2023-02-15T16:01:23;0.80;;;0.80;;
50002;SDS011;35889;51.442;6.408;2023-02-15T16:03:51;0.75;;;0.75;;
50002;SDS011;35889;51.442;6.408;2023-02-15T16:06:29;0.70;;;0.70;;
50002;SDS011;35889;51.442;6.408;2023-02-15T16:08:56;0.70;;;0.70;;
50002;SDS011;35889;51.442;6.408;2023-02-15T16:11:23;0.77;;;0.77;;
50002;SDS011;35889;51.442;6.408;2023-02-15T16:13:51;0.70;;;0.70;;
50002;SDS011;35889;51.442;6.408;2023-02-15T16:16:26;0.70;;;0.70;;
50002;SDS011;35889;51.442;6.408;2023-02-15T16:18:53;0.80;;;0.80;;
50002;SDS011;35889;51.442;6.408;2023-02-15T16:21:27;0.70;;;0.70;;
50002;SDS011;35889;51.442;6.408;2023-02-15T16:29:15;0.70;;;0.70;;
50002;SDS011;35889;51.442;6.408;2023-02-15T16:31:41;0.70;;;0.70;;
50002;SDS011;35889;51.442;6.408;2023-02-15T16:34:16;0.80;;;0.80;;
50002;SDS011;35889;51.442;6.408;2023-02-15T16:36:42;0.70;;;0.70;;
50002;SDS011;35889;51.442;6.408;2023-02-15T16:39:09;0.73;;;0.73;;
50002;SDS011;35889;51.442;6.408;2023-02-15T16:41:42;0.77;;;0.77;;
50002;SDS011;35889;51.442;6.408;2023-02-15T16:44:17;0.77;;;0.77;;
50002;SDS011;35889;51.442;6.408;2023-02-15T16:46:46;0.70;;;0.70;;
50002;SDS011;35889;51.442;6.408;2023-02-15T16:49:15;0.70;;;0.70;;
50002;SDS011;35889;51.442;6.408;2023-02-15T16:51:43;0.80;;;0.80;;
50002;SDS011;35889;51.442;6.408;2023-02-15T16:54:16;0.70;;;0.70;;
50002;SDS011;35889;51.442;6.408;2023-02-15T16:56:45;0.65;;;0.65;;
50002;SDS011;35889;51.442;6.408;2023-02-15T17:02:13;0.70;;;0.70;;
50002;SDS011;35889;51.442;6.408;2023-02-15T17:04:41;0.80;;;0.80;;
50002;SDS011;35889;51.442;6.408;2023-02-15T17:07:17;0.70;;;0.70;;
50002;SDS011;35889;51.442;6.408;2023-02-15T17:09:54;0.70;;;0.70;;
50002;SDS011;35889;51.442;6.408;2023-02-15T17:15:24;0.68;;;0.68;;
50002;SDS011;35889;51.442;6.408;2023-02-15T17:17:50;0.80;;;0.80;;
50002;SDS011;35889;51.442;6.408;2023-02-15T17:20:16;0.77;;;0.77;;
50002;SDS011;35889;51.442;6.408;2023-02-15T17:22:43;0.80;;;0.80;;
50002;SDS011;35889;51.442;6.408;2023-02-15T17:25:16;0.70;;;0.70;;
50002;SDS011;35889;51.442;6.408;2023-02-15T17:27:49;0.70;;;0.70;;
50002;SDS011;35889;51.442;6.408;2023-02-15T17:30:31;0.80;;;0.80;;
50002;SDS011;35889;51.442;6.408;2023-02-15T17:32:59;0.80;;;0.80;;
50002;SDS011;35889;51.442;6.408;2023-02-15T17:35:27;0.80;;;0.80;;
50002;SDS011;35889;51.442;6.408;2023-02-15T17:38:01;0.80;;;0.80;;
50002;SDS011;35889;51.442;6.408;2023-02-15T17:40:34;0.80;;;0.80;;
50002;SDS011;35889;51.442;6.408;2023-02-15T17:43:01;0.70;;;0.70;;
50002;SDS011;35889;51.442;6.408;2023-02-15T17:45:33;0.70;;;0.70;;
50002;SDS011;35889;51.442;6.408;2023-02-15T17:48:01;0.80;;;0.80;;
50002;SDS011;35889;51.442;6.408;2023-02-15T17:50:28;0.70;;;0.70;;
50002;SDS011;35889;51.442;6.408;2023-02-15T17:52:55;0.70;;;0.70;;
50002;SDS011;35889;51.442;6.408;2023-02-15T17:55:22;0.70;;;0.70;;
50002;SDS011;35889;51.442;6.408;2023-02-15T17:58:02;0.70;;;0.70;;
50002;SDS011;35889;51.442;6.408;2023-02-15T18:00:29;0.80;;;0.80;;
50002;SDS011;35889;51.442;6.408;2023-02-15T18:03:15;0.70;;;0.70;;
50002;SDS011;35889;51.442;6.408;2023-02-15T18:05:59;0.80;;;0.80;;
50002;SDS011;35889;51.442;6.408;2023-02-15T18:08:43;0.80;;;0.80;;
50002;SDS011;35889;51.442;6.408;2023-02-15T18:11:27;0.70;;;0.70;;
50002;SDS011;35889;51.442;6.408;2023-02-15T18:14:08;0.80;;;0.80;;
50002;SDS011;35889;51.442;6.408;2023-02-15T18:16:39;0.70;;;0.70;;
50002;SDS011;35889;51.442;6.408;2023-02-15T18:19:14;0.80;;;0.80;;
50002;SDS011;35889;51.442;6.408;2023-02-15T18:21:42;0.80;;;0.80;;